Terminal Aerodrome Forecast
Issued by NWS

Home | Current Version | Previous Version | Graphics & Text | Print | Product List | Glossary On
Versions: 1 2 3 4 5 6 7 8 9 10 11 12 13 14 15 16 17
000
FTUS43 KMPX 281000 AAA
TAFRNH
TAF AMD
KRNH 281026Z 2810/2906 14009KT 6SM -SN BR SCT025 OVC060
      TEMPO 2818/2820 6SM -FZDZPL BKN030
     FM282000 11004KT P6SM SCT015 OVC035
     FM290100 12006KT P6SM OVC025 PROB30 2904/2906 4SM -PL BR=

USA.gov is the U.S. government's official web portal to all federal, state and local government web resources and services.